This is the latest recevied weather packets stored in our database for station/object VA3ZFM-10. If no packets are shown the sender has not sent any weather packets the latest 1 day(s).
| Time | Temp. | Humidity | Pressure | Rain* | Wind** | Luminosity | Snow |
|---|---|---|---|---|---|---|---|
| 1778005738 | 13.89° C | 48% | 1002.3 hPa | 0 mm | 0.45 m/s, 105° | - | - |
| 1778005434 | 13.89° C | 48% | 1002.3 hPa | 0 mm | 3.13 m/s, 236° | - | - |
| 1778005131 | 13.33° C | 49% | 1001.9 hPa | 0 mm | 1.34 m/s, 139° | - | - |
| 1778004829 | 13.89° C | 50% | 1002.1 hPa | 0 mm | 0.89 m/s, 268° | - | - |
| 1778004525 | 13.33° C | 51% | 1002.2 hPa | 0 mm | 0.89 m/s, 208° | - | - |
| 1778004221 | 13.33° C | 51% | 1002.1 hPa | 0 mm | 0.45 m/s, 192° | - | - |
| 1778003918 | 13.33° C | 52% | 1002.4 hPa | 0 mm | 0.45 m/s, 212° | - | - |
| 1778003614 | 13.33° C | 54% | 1002.4 hPa | 0 mm | 0.89 m/s, 146° | - | - |
| 1778003311 | 13.33° C | 56% | 1002.4 hPa | 0 mm | 0.45 m/s, 96° | - | - |
| 1778003009 | 13.33° C | 56% | 1002.3 hPa | 0 mm | 0.45 m/s, 195° | - | - |
| 1778002704 | 12.78° C | 57% | 1002.1 hPa | 0 mm | 2.68 m/s, 268° | - | - |
| 1778002401 | 13.33° C | 58% | 1002 hPa | 0 mm | 0.89 m/s, 191° | - | - |
| 1778002099 | 13.33° C | 58% | 1002 hPa | 0 mm | 0.45 m/s, 219° | - | - |
| 1778001796 | 13.33° C | 58% | 1002 hPa | 0 mm | 4.47 m/s, 250° | - | - |
| 1778001490 | 13.33° C | 59% | 1001.8 hPa | 0 mm | 1.79 m/s, 256° | - | - |
| 1778001187 | 13.33° C | 59% | 1001.5 hPa | 0 mm | 1.79 m/s, 103° | - | - |
| 1778000883 | 13.89° C | 61% | 1001.5 hPa | 0 mm | 1.79 m/s, 234° | - | - |
| 1778000581 | 14.44° C | 64% | 1001.5 hPa | 0 mm | 1.79 m/s, 203° | - | - |
| 1778000275 | 14.44° C | 65% | 1001.6 hPa | 0 mm | 0 m/s | - | - |
| 1777999971 | 13.89° C | 65% | 1001.3 hPa | 0 mm | 0.89 m/s, 242° | - | - |
| 1777999667 | 14.44° C | 64% | 1001.5 hPa | 0 mm | 2.68 m/s, 211° | - | - |
| 1777999364 | 13.89° C | 66% | 1001.1 hPa | 0 mm | 1.79 m/s, 209° | - | - |
| 1777999063 | 14.44° C | 68% | 1001.1 hPa | 0 mm | 0.89 m/s, 154° | - | - |
| 1777998761 | 13.89° C | 68% | 1001 hPa | 0 mm | 0.45 m/s, 99° | - | - |
| 1777998458 | 13.89° C | 68% | 1001 hPa | 0 mm | 1.34 m/s, 346° | - | - |
* Rain latest hour (hover to see other rain measurements)
** Current wind speed in m/s (hover to see current wind gust speed)